YD2CLX-20 Weather Reports


Display with metric or nautical units.
time (UTC)temp
F
wind
direction
speed
MPH
gust
MPH
rain 1hr
in
rain 24hr
in
rain mn
in
humidity
%
barometer
mb
20260509194531 77 110 8.0 0.0 0.00 0.00 0.00 100 1009.0
20260509193031 77 110 8.0 0.0 0.00 0.00 0.00 100 1009.0
20260509191531 77 110 8.0 0.0 0.00 0.00 0.00 100 1009.0
20260509190033 77 110 8.0 0.0 0.00 0.00 0.00 100 1009.0
20260509184531 77 110 8.0 0.0 0.00 0.00 0.00 100 1009.0
20260509183030 77 110 7.0 0.0 0.00 0.00 0.00 100 1010.0
20260509181530 77 110 7.0 0.0 0.00 0.00 0.00 100 1010.0
20260509180033 77 230 5.0 0.0 0.00 0.00 0.00 100 1010.0
20260509174531 77 230 5.0 0.0 0.00 0.00 0.00 100 1010.0
20260509173031 77 230 5.0 0.0 0.00 0.00 0.00 100 1010.0
20260509171531 77 230 5.0 0.0 0.00 0.00 0.00 100 1010.0
20260509170032 77 230 5.0 0.0 0.00 0.00 0.00 100 1010.0
20260509164531 77 230 5.0 0.0 0.00 0.00 0.00 100 1010.0
20260509163031 77 230 5.0 0.0 0.00 0.00 0.00 100 1010.0
20260509161531 77 230 5.0 0.0 0.00 0.00 0.00 100 1010.0
20260509160034 77 230 5.0 0.0 0.00 0.00 0.00 100 1011.0
20260509154531 77 230 5.0 0.0 0.00 0.00 0.00 100 1010.0
20260509153030 77 230 5.0 0.0 0.00 0.00 0.00 100 1011.0
20260509151530 77 230 5.0 0.0 0.00 0.00 0.00 100 1010.0
20260509150034 77 230 5.0 0.0 0.00 0.00 0.00 100 1011.0
20260509144531 77 230 5.0 0.0 0.00 0.00 0.00 100 1010.0
20260509143031 77 230 5.0 0.0 0.00 0.00 0.00 100 1011.0
20260509141531 77 230 5.0 0.0 0.00 0.00 0.00 100 1010.0
20260509140035 77 230 5.0 0.0 0.00 0.00 0.00 100 1011.0
20260509134531 77 230 5.0 0.0 0.00 0.00 0.00 100 1010.0
20260509133031 82 200 11.0 0.0 0.00 0.00 0.00 89 1010.0
20260509131530 82 200 11.0 0.0 0.00 0.00 0.00 89 1010.0
20260509130035 82 200 11.0 0.0 0.00 0.00 0.00 89 1010.0
20260509124531 82 200 11.0 0.0 0.00 0.00 0.00 89 1010.0
20260509123031 82 310 10.0 0.0 0.00 0.00 0.00 89 1010.0
20260509121530 82 310 10.0 0.0 0.00 0.00 0.00 89 1009.0
20260509120036 82 310 10.0 0.0 0.00 0.00 0.00 89 1009.0
20260509114531 84 310 10.0 0.0 0.00 0.00 0.00 89 1009.0
20260509113030 86 310 9.0 0.0 0.00 0.00 0.00 79 1009.0
20260509111531 86 310 9.0 0.0 0.00 0.00 0.00 79 1009.0
20260509110030 86 300 6.0 0.0 0.00 0.00 0.00 79 1009.0
20260509104530 86 300 6.0 0.0 0.00 0.00 0.00 79 1009.0
20260509103031 86 310 7.0 0.0 0.00 0.00 0.00 74 1009.0
20260509101531 86 310 7.0 0.0 0.00 0.00 0.00 74 1008.0
20260509100031 86 330 10.0 0.0 0.00 0.00 0.00 74 1008.0
20260509094531 86 330 10.0 0.0 0.00 0.00 0.00 74 1008.0
20260509093031 86 320 10.0 0.0 0.00 0.00 0.00 74 1008.0
20260509091530 86 320 10.0 0.0 0.00 0.00 0.00 74 1007.0
20260509090030 86 320 9.0 0.0 0.00 0.00 0.00 74 1007.0
20260509084530 86 320 9.0 0.0 0.00 0.00 0.00 74 1007.0
20260509083030 87 320 13.0 0.0 0.00 0.00 0.00 70 1007.0
20260509081515 91 358 5.0 5.0 0.01 0.00 0.00 69 1007.0
20260509080017 92 358 5.0 5.0 0.00 0.00 0.00 69 1007.0
20260509074514 92 358 5.0 5.0 0.00 0.00 0.00 67 1007.0
20260509073017 92 358 5.0 5.0 0.00 0.00 0.00 67 1007.0
20260509071515 92 17 6.0 4.0 0.00 0.00 0.00 64 1007.0
20260509070018 92 17 6.0 4.0 0.00 0.00 0.00 65 1007.0
20260509064517 92 17 6.0 4.0 0.00 0.00 0.00 64 1007.0
20260509063019 92 17 6.0 4.0 0.00 0.00 0.00 64 1008.0
20260509061517 92 31 5.0 3.0 0.00 0.00 0.00 64 1008.0
20260509060026 92 31 5.0 3.0 0.00 0.00 0.00 64 1008.0
20260509054517 92 31 5.0 3.0 0.00 0.00 0.00 64 1008.0
20260509053021 92 37 5.0 3.0 0.00 0.00 0.00 63 1008.0
20260509051517 91 54 5.0 4.0 0.00 0.00 0.00 64 1009.0
20260509050028 91 54 5.0 4.0 0.00 0.00 0.00 64 1009.0
20260509044520 91 54 5.0 4.0 0.00 0.00 0.00 64 1009.0
20260509043024 89 61 6.0 5.0 0.00 0.00 0.00 65 1010.0
20260509041518 91 70 5.0 5.0 0.00 0.00 0.00 67 1010.0
20260509040034 91 70 5.0 5.0 0.00 0.00 0.00 67 1010.0
20260509034521 91 70 5.0 5.0 0.01 0.00 0.00 67 1010.0
20260509033025 90 70 5.0 5.0 0.00 0.00 0.00 67 1010.0
20260509031521 90 87 5.0 5.0 0.00 0.00 0.00 70 1011.0
20260509030031 90 87 5.0 5.0 0.00 0.00 0.00 70 1011.0
20260509024524 90 87 5.0 5.0 0.00 0.00 0.00 71 1011.0
20260509023033 90 87 5.0 5.0 0.00 0.00 0.00 71 1011.0
20260509021521 89 101 4.0 5.0 0.00 0.00 0.00 76 1011.0
20260509020025 88 101 4.0 5.0 0.00 0.00 0.00 75 1011.0
20260509014519 88 101 4.0 5.0 0.00 0.00 0.00 81 1011.0
20260509013027 88 101 4.0 5.0 0.00 0.00 0.00 81 1011.0
20260509011523 86 105 4.0 4.0 0.00 0.00 0.00 88 1011.0
20260509010028 86 105 4.0 4.0 0.00 0.00 0.00 86 1011.0
20260509004520 83 98 3.0 3.0 0.00 0.00 0.00 87 1011.0
20260509003021 85 105 4.0 4.0 0.00 0.00 0.00 88 1011.0
20260509001518 83 117 3.0 4.0 0.00 0.00 0.00 91 1010.0
20260509000039 83 117 3.0 4.0 0.00 0.00 0.00 91 1010.0
20260508234519 83 117 3.0 4.0 0.00 0.00 0.00 91 1010.0
20260508233026 83 121 2.0 3.0 0.00 0.00 0.00 90 1010.0
20260508231518 82 158 3.0 3.0 0.00 0.00 0.00 91 1009.0
20260508230024 82 158 3.0 3.0 0.00 0.00 0.00 92 1009.0
20260508224517 82 158 3.0 3.0 0.00 0.00 0.00 93 1009.0
20260508223024 82 158 3.0 3.0 0.00 0.00 0.00 93 1009.0
20260508221521 82 156 2.0 2.0 0.00 0.00 0.00 93 1009.0
20260508220032 82 156 2.0 2.0 0.00 0.00 0.00 93 1009.0
20260508214518 82 156 2.0 2.0 0.00 0.00 0.00 93 1009.0
20260508213022 82 156 2.0 2.0 0.00 0.00 0.00 93 1009.0
20260508211521 83 157 3.0 3.0 0.00 0.00 0.00 93 1009.0
20260508210029 83 157 3.0 3.0 0.00 0.00 0.00 93 1009.0
20260508204520 83 157 3.0 3.0 0.00 0.00 0.00 93 1009.0
20260508203021 83 157 3.0 3.0 0.00 0.00 0.00 93 1009.0
20260508201518 83 160 4.0 5.0 0.00 0.00 0.00 93 1009.0
20260508200024 83 160 4.0 5.0 0.00 0.00 0.00 93 1009.0